sensor_id;sensor_type;location;lat;lon;timestamp;P1;durP1;ratioP1;P2;durP2;ratioP2
59516;SDS011;45342;42.662;27.718;2022-09-24T00:01:25;2.72;;;2.38;;
59516;SDS011;45342;42.662;27.718;2022-09-24T00:03:56;2.97;;;2.05;;
59516;SDS011;45342;42.662;27.718;2022-09-24T00:06:27;3.63;;;2.30;;
59516;SDS011;45342;42.662;27.718;2022-09-24T00:08:54;2.60;;;2.35;;
59516;SDS011;45342;42.662;27.718;2022-09-24T00:11:20;2.30;;;2.10;;
59516;SDS011;45342;42.662;27.718;2022-09-24T00:13:47;2.88;;;2.28;;
59516;SDS011;45342;42.662;27.718;2022-09-24T00:16:15;3.75;;;2.33;;
59516;SDS011;45342;42.662;27.718;2022-09-24T00:18:41;2.63;;;2.22;;
59516;SDS011;45342;42.662;27.718;2022-09-24T00:23:52;2.42;;;2.13;;
59516;SDS011;45342;42.662;27.718;2022-09-24T00:26:20;3.05;;;2.30;;
59516;SDS011;45342;42.662;27.718;2022-09-24T00:29:04;2.50;;;2.30;;
59516;SDS011;45342;42.662;27.718;2022-09-24T00:31:31;2.40;;;2.20;;
59516;SDS011;45342;42.662;27.718;2022-09-24T00:33:57;2.13;;;1.92;;
59516;SDS011;45342;42.662;27.718;2022-09-24T00:36:23;2.67;;;2.20;;
59516;SDS011;45342;42.662;27.718;2022-09-24T00:38:50;2.47;;;2.28;;
59516;SDS011;45342;42.662;27.718;2022-09-24T00:41:18;3.90;;;2.50;;
59516;SDS011;45342;42.662;27.718;2022-09-24T00:43:45;2.63;;;2.42;;
59516;SDS011;45342;42.662;27.718;2022-09-24T00:48:58;2.30;;;2.10;;
59516;SDS011;45342;42.662;27.718;2022-09-24T00:51:27;2.38;;;2.17;;
59516;SDS011;45342;42.662;27.718;2022-09-24T00:53:55;2.70;;;2.30;;
59516;SDS011;45342;42.662;27.718;2022-09-24T00:56:29;3.72;;;2.30;;
59516;SDS011;45342;42.662;27.718;2022-09-24T00:58:55;2.60;;;2.20;;
59516;SDS011;45342;42.662;27.718;2022-09-24T01:01:21;3.35;;;2.17;;
59516;SDS011;45342;42.662;27.718;2022-09-24T01:03:49;2.22;;;2.00;;
59516;SDS011;45342;42.662;27.718;2022-09-24T01:06:15;2.83;;;2.40;;
59516;SDS011;45342;42.662;27.718;2022-09-24T01:08:40;4.00;;;2.38;;
59516;SDS011;45342;42.662;27.718;2022-09-24T01:12:11;2.60;;;2.40;;
59516;SDS011;45342;42.662;27.718;2022-09-24T01:16:59;2.17;;;1.98;;
59516;SDS011;45342;42.662;27.718;2022-09-24T01:30:44;2.63;;;2.42;;
59516;SDS011;45342;42.662;27.718;2022-09-24T01:33:12;4.35;;;2.47;;
59516;SDS011;45342;42.662;27.718;2022-09-24T01:35:44;4.50;;;2.38;;
59516;SDS011;45342;42.662;27.718;2022-09-24T01:40:50;2.97;;;2.40;;
59516;SDS011;45342;42.662;27.718;2022-09-24T01:43:17;2.30;;;2.08;;
59516;SDS011;45342;42.662;27.718;2022-09-24T01:45:45;2.45;;;2.15;;
59516;SDS011;45342;42.662;27.718;2022-09-24T01:48:10;3.42;;;2.40;;
59516;SDS011;45342;42.662;27.718;2022-09-24T01:50:43;2.45;;;2.10;;
59516;SDS011;45342;42.662;27.718;2022-09-24T01:53:21;3.35;;;2.00;;
59516;SDS011;45342;42.662;27.718;2022-09-24T01:55:59;2.53;;;2.33;;
59516;SDS011;45342;42.662;27.718;2022-09-24T01:58:33;2.78;;;2.40;;
59516;SDS011;45342;42.662;27.718;2022-09-24T02:01:07;2.83;;;2.17;;
59516;SDS011;45342;42.662;27.718;2022-09-24T02:03:38;2.38;;;2.17;;
59516;SDS011;45342;42.662;27.718;2022-09-24T02:06:09;2.80;;;2.42;;
59516;SDS011;45342;42.662;27.718;2022-09-24T02:08:38;2.20;;;2.00;;
59516;SDS011;45342;42.662;27.718;2022-09-24T02:11:07;3.58;;;1.95;;
59516;SDS011;45342;42.662;27.718;2022-09-24T02:13:36;2.58;;;2.38;;
59516;SDS011;45342;42.662;27.718;2022-09-24T02:16:08;3.83;;;2.25;;
59516;SDS011;45342;42.662;27.718;2022-09-24T02:18:39;2.55;;;2.35;;
59516;SDS011;45342;42.662;27.718;2022-09-24T02:21:06;2.70;;;2.20;;
59516;SDS011;45342;42.662;27.718;2022-09-24T02:23:35;2.95;;;2.10;;
59516;SDS011;45342;42.662;27.718;2022-09-24T02:26:03;2.47;;;2.00;;
59516;SDS011;45342;42.662;27.718;2022-09-24T02:28:30;2.70;;;2.50;;
59516;SDS011;45342;42.662;27.718;2022-09-24T02:33:43;2.25;;;2.00;;
59516;SDS011;45342;42.662;27.718;2022-09-24T02:36:28;2.70;;;2.40;;
59516;SDS011;45342;42.662;27.718;2022-09-24T02:38:54;2.42;;;2.17;;
59516;SDS011;45342;42.662;27.718;2022-09-24T02:41:21;2.20;;;2.00;;
59516;SDS011;45342;42.662;27.718;2022-09-24T02:43:49;2.30;;;2.10;;
59516;SDS011;45342;42.662;27.718;2022-09-24T02:46:15;2.50;;;2.30;;
59516;SDS011;45342;42.662;27.718;2022-09-24T02:48:41;2.65;;;2.20;;
59516;SDS011;45342;42.662;27.718;2022-09-24T02:51:06;2.55;;;2.22;;
59516;SDS011;45342;42.662;27.718;2022-09-24T02:53:32;2.60;;;2.40;;
59516;SDS011;45342;42.662;27.718;2022-09-24T02:55:58;2.33;;;2.10;;
59516;SDS011;45342;42.662;27.718;2022-09-24T02:58:27;3.58;;;2.10;;
59516;SDS011;45342;42.662;27.718;2022-09-24T03:00:53;3.55;;;2.13;;
59516;SDS011;45342;42.662;27.718;2022-09-24T03:03:20;2.53;;;2.20;;
59516;SDS011;45342;42.662;27.718;2022-09-24T03:05:47;3.13;;;2.00;;
59516;SDS011;45342;42.662;27.718;2022-09-24T03:08:17;2.60;;;2.40;;
59516;SDS011;45342;42.662;27.718;2022-09-24T03:10:43;2.40;;;2.20;;
59516;SDS011;45342;42.662;27.718;2022-09-24T03:13:11;2.15;;;1.95;;
59516;SDS011;45342;42.662;27.718;2022-09-24T03:15:36;3.33;;;2.25;;
59516;SDS011;45342;42.662;27.718;2022-09-24T03:18:02;4.38;;;2.20;;
59516;SDS011;45342;42.662;27.718;2022-09-24T03:20:28;2.40;;;2.03;;
59516;SDS011;45342;42.662;27.718;2022-09-24T03:22:54;2.20;;;2.00;;
59516;SDS011;45342;42.662;27.718;2022-09-24T03:25:20;2.60;;;2.10;;
59516;SDS011;45342;42.662;27.718;2022-09-24T03:27:45;2.65;;;2.28;;
59516;SDS011;45342;42.662;27.718;2022-09-24T03:30:11;2.42;;;2.00;;
59516;SDS011;45342;42.662;27.718;2022-09-24T03:32:56;1.83;;;1.73;;
59516;SDS011;45342;42.662;27.718;2022-09-24T03:35:21;2.15;;;1.95;;
59516;SDS011;45342;42.662;27.718;2022-09-24T03:37:47;3.22;;;2.20;;
59516;SDS011;45342;42.662;27.718;2022-09-24T03:40:13;3.10;;;2.40;;
59516;SDS011;45342;42.662;27.718;2022-09-24T03:42:38;3.03;;;2.40;;
59516;SDS011;45342;42.662;27.718;2022-09-24T03:45:04;2.65;;;2.00;;
59516;SDS011;45342;42.662;27.718;2022-09-24T03:47:30;2.13;;;1.92;;
59516;SDS011;45342;42.662;27.718;2022-09-24T03:49:56;2.38;;;2.13;;
59516;SDS011;45342;42.662;27.718;2022-09-24T03:52:22;2.75;;;2.17;;
59516;SDS011;45342;42.662;27.718;2022-09-24T03:54:48;2.47;;;2.20;;
59516;SDS011;45342;42.662;27.718;2022-09-24T03:57:14;2.30;;;2.10;;
59516;SDS011;45342;42.662;27.718;2022-09-24T03:59:41;4.43;;;2.45;;
59516;SDS011;45342;42.662;27.718;2022-09-24T04:02:07;2.25;;;2.05;;
59516;SDS011;45342;42.662;27.718;2022-09-24T04:06:58;2.20;;;2.00;;
59516;SDS011;45342;42.662;27.718;2022-09-24T04:09:24;1.92;;;1.83;;
59516;SDS011;45342;42.662;27.718;2022-09-24T04:11:50;2.15;;;1.95;;
59516;SDS011;45342;42.662;27.718;2022-09-24T04:14:17;2.72;;;2.30;;
59516;SDS011;45342;42.662;27.718;2022-09-24T04:16:43;2.15;;;1.95;;
59516;SDS011;45342;42.662;27.718;2022-09-24T04:19:10;2.63;;;2.17;;
59516;SDS011;45342;42.662;27.718;2022-09-24T04:21:36;2.10;;;2.00;;
59516;SDS011;45342;42.662;27.718;2022-09-24T04:24:02;2.30;;;2.10;;
59516;SDS011;45342;42.662;27.718;2022-09-24T04:26:28;4.00;;;3.25;;
59516;SDS011;45342;42.662;27.718;2022-09-24T04:28:54;2.65;;;2.45;;
59516;SDS011;45342;42.662;27.718;2022-09-24T04:31:23;5.85;;;5.25;;
59516;SDS011;45342;42.662;27.718;2022-09-24T04:33:57;5.43;;;3.67;;
59516;SDS011;45342;42.662;27.718;2022-09-24T04:36:22;4.47;;;3.63;;
59516;SDS011;45342;42.662;27.718;2022-09-24T04:38:48;4.45;;;4.05;;
59516;SDS011;45342;42.662;27.718;2022-09-24T04:41:15;4.30;;;3.78;;
59516;SDS011;45342;42.662;27.718;2022-09-24T04:43:42;3.72;;;3.33;;
59516;SDS011;45342;42.662;27.718;2022-09-24T04:46:10;3.30;;;3.00;;
59516;SDS011;45342;42.662;27.718;2022-09-24T04:48:37;4.57;;;3.45;;
59516;SDS011;45342;42.662;27.718;2022-09-24T04:51:12;3.75;;;3.35;;
59516;SDS011;45342;42.662;27.718;2022-09-24T04:53:41;4.25;;;3.40;;
59516;SDS011;45342;42.662;27.718;2022-09-24T04:56:06;3.38;;;3.08;;
59516;SDS011;45342;42.662;27.718;2022-09-24T04:58:36;3.22;;;2.90;;
59516;SDS011;45342;42.662;27.718;2022-09-24T05:01:02;3.78;;;3.42;;
59516;SDS011;45342;42.662;27.718;2022-09-24T05:03:28;3.20;;;2.90;;
59516;SDS011;45342;42.662;27.718;2022-09-24T05:05:54;3.03;;;2.72;;
59516;SDS011;45342;42.662;27.718;2022-09-24T05:08:21;3.33;;;2.85;;
59516;SDS011;45342;42.662;27.718;2022-09-24T05:10:46;2.92;;;2.72;;
59516;SDS011;45342;42.662;27.718;2022-09-24T05:13:12;3.17;;;2.88;;
59516;SDS011;45342;42.662;27.718;2022-09-24T05:15:38;3.33;;;2.90;;
59516;SDS011;45342;42.662;27.718;2022-09-24T05:18:03;3.10;;;2.80;;
59516;SDS011;45342;42.662;27.718;2022-09-24T05:20:31;3.28;;;2.97;;
59516;SDS011;45342;42.662;27.718;2022-09-24T05:22:56;2.70;;;2.50;;
59516;SDS011;45342;42.662;27.718;2022-09-24T05:25:22;3.35;;;2.92;;
59516;SDS011;45342;42.662;27.718;2022-09-24T05:27:49;2.78;;;2.58;;
59516;SDS011;45342;42.662;27.718;2022-09-24T05:30:15;3.65;;;2.78;;
59516;SDS011;45342;42.662;27.718;2022-09-24T05:32:42;3.15;;;2.70;;
59516;SDS011;45342;42.662;27.718;2022-09-24T05:35:07;3.00;;;2.72;;
59516;SDS011;45342;42.662;27.718;2022-09-24T05:37:36;3.22;;;2.83;;
59516;SDS011;45342;42.662;27.718;2022-09-24T05:40:03;4.28;;;2.90;;
59516;SDS011;45342;42.662;27.718;2022-09-24T05:42:48;3.22;;;2.80;;
59516;SDS011;45342;42.662;27.718;2022-09-24T05:45:15;3.45;;;2.92;;
59516;SDS011;45342;42.662;27.718;2022-09-24T05:47:44;2.78;;;2.58;;
59516;SDS011;45342;42.662;27.718;2022-09-24T05:50:10;3.53;;;2.80;;
59516;SDS011;45342;42.662;27.718;2022-09-24T05:52:37;3.13;;;2.90;;
59516;SDS011;45342;42.662;27.718;2022-09-24T05:55:03;3.40;;;2.90;;
59516;SDS011;45342;42.662;27.718;2022-09-24T05:57:29;2.67;;;2.45;;
59516;SDS011;45342;42.662;27.718;2022-09-24T05:59:55;3.10;;;2.60;;
59516;SDS011;45342;42.662;27.718;2022-09-24T06:02:20;3.25;;;2.92;;
59516;SDS011;45342;42.662;27.718;2022-09-24T06:04:46;2.75;;;2.55;;
59516;SDS011;45342;42.662;27.718;2022-09-24T06:07:11;2.90;;;2.70;;
59516;SDS011;45342;42.662;27.718;2022-09-24T06:09:37;3.22;;;2.63;;
59516;SDS011;45342;42.662;27.718;2022-09-24T06:12:03;3.10;;;2.80;;
59516;SDS011;45342;42.662;27.718;2022-09-24T06:14:31;3.45;;;2.72;;
59516;SDS011;45342;42.662;27.718;2022-09-24T06:16:57;3.25;;;2.80;;
59516;SDS011;45342;42.662;27.718;2022-09-24T06:19:23;3.28;;;2.90;;
59516;SDS011;45342;42.662;27.718;2022-09-24T06:21:48;3.25;;;2.92;;
59516;SDS011;45342;42.662;27.718;2022-09-24T06:24:14;4.45;;;3.25;;
59516;SDS011;45342;42.662;27.718;2022-09-24T06:26:40;3.22;;;2.83;;
59516;SDS011;45342;42.662;27.718;2022-09-24T06:29:05;3.17;;;2.78;;
59516;SDS011;45342;42.662;27.718;2022-09-24T06:31:31;3.00;;;2.67;;
59516;SDS011;45342;42.662;27.718;2022-09-24T06:33:58;3.47;;;2.90;;
59516;SDS011;45342;42.662;27.718;2022-09-24T06:36:24;2.90;;;2.60;;
59516;SDS011;45342;42.662;27.718;2022-09-24T06:38:50;3.38;;;2.72;;
59516;SDS011;45342;42.662;27.718;2022-09-24T06:41:16;3.97;;;2.60;;
59516;SDS011;45342;42.662;27.718;2022-09-24T06:43:42;3.22;;;2.90;;
59516;SDS011;45342;42.662;27.718;2022-09-24T06:46:08;3.30;;;2.97;;
59516;SDS011;45342;42.662;27.718;2022-09-24T06:48:34;2.88;;;2.67;;
59516;SDS011;45342;42.662;27.718;2022-09-24T06:51:04;2.78;;;2.58;;
59516;SDS011;45342;42.662;27.718;2022-09-24T06:53:30;4.35;;;2.35;;
59516;SDS011;45342;42.662;27.718;2022-09-24T06:55:56;3.20;;;2.60;;
59516;SDS011;45342;42.662;27.718;2022-09-24T06:58:23;3.20;;;2.90;;
59516;SDS011;45342;42.662;27.718;2022-09-24T07:03:19;2.90;;;2.40;;
59516;SDS011;45342;42.662;27.718;2022-09-24T07:05:45;2.58;;;2.38;;
59516;SDS011;45342;42.662;27.718;2022-09-24T07:08:11;3.00;;;2.70;;
59516;SDS011;45342;42.662;27.718;2022-09-24T07:10:40;2.90;;;2.60;;
59516;SDS011;45342;42.662;27.718;2022-09-24T07:13:07;3.42;;;2.70;;
59516;SDS011;45342;42.662;27.718;2022-09-24T07:15:32;2.72;;;2.40;;
59516;SDS011;45342;42.662;27.718;2022-09-24T07:17:58;2.80;;;2.55;;
59516;SDS011;45342;42.662;27.718;2022-09-24T07:20:24;2.92;;;2.63;;
59516;SDS011;45342;42.662;27.718;2022-09-24T07:22:52;3.13;;;2.35;;
59516;SDS011;45342;42.662;27.718;2022-09-24T07:25:18;2.40;;;2.20;;
59516;SDS011;45342;42.662;27.718;2022-09-24T07:27:43;2.85;;;2.30;;
59516;SDS011;45342;42.662;27.718;2022-09-24T07:30:09;2.80;;;2.35;;
59516;SDS011;45342;42.662;27.718;2022-09-24T07:32:35;3.25;;;2.42;;
59516;SDS011;45342;42.662;27.718;2022-09-24T07:35:00;3.20;;;2.85;;
59516;SDS011;45342;42.662;27.718;2022-09-24T07:37:26;2.72;;;2.53;;
59516;SDS011;45342;42.662;27.718;2022-09-24T07:39:51;2.65;;;2.45;;
59516;SDS011;45342;42.662;27.718;2022-09-24T07:42:17;3.05;;;2.75;;
59516;SDS011;45342;42.662;27.718;2022-09-24T07:44:43;2.85;;;2.53;;
59516;SDS011;45342;42.662;27.718;2022-09-24T07:47:09;2.70;;;2.35;;
59516;SDS011;45342;42.662;27.718;2022-09-24T07:49:35;2.63;;;2.42;;
59516;SDS011;45342;42.662;27.718;2022-09-24T07:52:03;2.50;;;2.30;;
59516;SDS011;45342;42.662;27.718;2022-09-24T07:54:28;2.97;;;2.67;;
59516;SDS011;45342;42.662;27.718;2022-09-24T07:56:54;3.92;;;2.50;;
59516;SDS011;45342;42.662;27.718;2022-09-24T07:59:20;2.58;;;2.38;;
59516;SDS011;45342;42.662;27.718;2022-09-24T08:01:46;2.70;;;2.50;;
59516;SDS011;45342;42.662;27.718;2022-09-24T08:04:11;2.75;;;2.45;;
59516;SDS011;45342;42.662;27.718;2022-09-24T08:06:37;2.88;;;2.58;;
59516;SDS011;45342;42.662;27.718;2022-09-24T08:09:03;2.53;;;2.33;;
59516;SDS011;45342;42.662;27.718;2022-09-24T08:11:29;4.40;;;2.50;;
59516;SDS011;45342;42.662;27.718;2022-09-24T08:13:55;2.88;;;2.60;;
59516;SDS011;45342;42.662;27.718;2022-09-24T08:16:21;2.42;;;2.22;;
59516;SDS011;45342;42.662;27.718;2022-09-24T08:18:47;2.60;;;2.40;;
59516;SDS011;45342;42.662;27.718;2022-09-24T08:21:13;2.72;;;2.53;;
59516;SDS011;45342;42.662;27.718;2022-09-24T08:23:40;3.03;;;2.50;;
59516;SDS011;45342;42.662;27.718;2022-09-24T08:26:07;2.67;;;2.38;;
59516;SDS011;45342;42.662;27.718;2022-09-24T08:28:33;2.88;;;2.67;;
59516;SDS011;45342;42.662;27.718;2022-09-24T08:30:59;2.95;;;2.50;;
59516;SDS011;45342;42.662;27.718;2022-09-24T08:33:27;2.78;;;2.47;;
59516;SDS011;45342;42.662;27.718;2022-09-24T08:35:53;2.60;;;2.40;;
59516;SDS011;45342;42.662;27.718;2022-09-24T08:38:18;2.65;;;2.45;;
59516;SDS011;45342;42.662;27.718;2022-09-24T08:46:38;3.65;;;2.50;;
59516;SDS011;45342;42.662;27.718;2022-09-24T08:49:26;2.75;;;2.45;;
59516;SDS011;45342;42.662;27.718;2022-09-24T08:54:39;3.60;;;2.75;;
59516;SDS011;45342;42.662;27.718;2022-09-24T08:57:09;2.65;;;2.40;;
59516;SDS011;45342;42.662;27.718;2022-09-24T08:59:37;3.75;;;2.20;;
59516;SDS011;45342;42.662;27.718;2022-09-24T09:02:14;2.72;;;2.30;;
59516;SDS011;45342;42.662;27.718;2022-09-24T09:10:32;4.47;;;2.90;;
59516;SDS011;45342;42.662;27.718;2022-09-24T09:15:30;3.25;;;2.60;;
59516;SDS011;45342;42.662;27.718;2022-09-24T09:18:03;3.33;;;2.40;;
59516;SDS011;45342;42.662;27.718;2022-09-24T09:20:44;4.22;;;2.67;;
59516;SDS011;45342;42.662;27.718;2022-09-24T09:23:20;3.30;;;2.38;;
59516;SDS011;45342;42.662;27.718;2022-09-24T09:25:58;2.70;;;2.50;;
59516;SDS011;45342;42.662;27.718;2022-09-24T09:41:47;3.00;;;2.70;;
59516;SDS011;45342;42.662;27.718;2022-09-24T09:44:24;2.72;;;2.50;;
59516;SDS011;45342;42.662;27.718;2022-09-24T09:46:56;3.10;;;2.80;;
59516;SDS011;45342;42.662;27.718;2022-09-24T09:49:29;3.08;;;2.70;;
59516;SDS011;45342;42.662;27.718;2022-09-24T09:51:58;2.85;;;2.53;;
59516;SDS011;45342;42.662;27.718;2022-09-24T09:54:36;3.53;;;2.83;;
59516;SDS011;45342;42.662;27.718;2022-09-24T09:57:04;3.38;;;2.72;;
59516;SDS011;45342;42.662;27.718;2022-09-24T09:59:30;3.63;;;3.03;;
59516;SDS011;45342;42.662;27.718;2022-09-24T10:01:58;3.90;;;2.78;;
59516;SDS011;45342;42.662;27.718;2022-09-24T10:07:05;3.28;;;2.58;;
59516;SDS011;45342;42.662;27.718;2022-09-24T10:09:37;3.15;;;2.65;;
59516;SDS011;45342;42.662;27.718;2022-09-24T10:12:08;2.83;;;2.53;;
59516;SDS011;45342;42.662;27.718;2022-09-24T10:14:55;2.75;;;2.53;;
59516;SDS011;45342;42.662;27.718;2022-09-24T10:17:22;2.65;;;2.45;;
59516;SDS011;45342;42.662;27.718;2022-09-24T10:19:52;3.05;;;2.50;;
59516;SDS011;45342;42.662;27.718;2022-09-24T10:22:22;3.35;;;2.65;;
59516;SDS011;45342;42.662;27.718;2022-09-24T10:24:49;3.20;;;2.70;;
59516;SDS011;45342;42.662;27.718;2022-09-24T10:27:33;3.83;;;2.55;;
59516;SDS011;45342;42.662;27.718;2022-09-24T10:30:01;2.83;;;2.50;;
59516;SDS011;45342;42.662;27.718;2022-09-24T10:32:55;3.35;;;2.83;;
59516;SDS011;45342;42.662;27.718;2022-09-24T10:35:40;3.10;;;2.40;;
59516;SDS011;45342;42.662;27.718;2022-09-24T10:38:15;2.95;;;2.53;;
59516;SDS011;45342;42.662;27.718;2022-09-24T10:40:46;3.15;;;2.60;;
59516;SDS011;45342;42.662;27.718;2022-09-24T10:43:19;2.88;;;2.55;;
59516;SDS011;45342;42.662;27.718;2022-09-24T10:45:57;3.05;;;2.47;;
59516;SDS011;45342;42.662;27.718;2022-09-24T10:48:42;3.88;;;2.30;;
59516;SDS011;45342;42.662;27.718;2022-09-24T10:51:29;3.75;;;2.58;;
59516;SDS011;45342;42.662;27.718;2022-09-24T10:54:30;2.70;;;2.42;;
59516;SDS011;45342;42.662;27.718;2022-09-24T10:57:23;2.53;;;2.33;;
59516;SDS011;45342;42.662;27.718;2022-09-24T11:00:19;2.70;;;2.50;;
59516;SDS011;45342;42.662;27.718;2022-09-24T11:05:36;2.95;;;2.40;;
59516;SDS011;45342;42.662;27.718;2022-09-24T11:13:39;3.35;;;2.50;;
59516;SDS011;45342;42.662;27.718;2022-09-24T11:22:12;3.72;;;2.60;;
59516;SDS011;45342;42.662;27.718;2022-09-24T11:32:35;3.45;;;2.72;;
59516;SDS011;45342;42.662;27.718;2022-09-24T11:37:59;2.67;;;2.40;;
59516;SDS011;45342;42.662;27.718;2022-09-24T11:59:46;4.03;;;2.47;;
59516;SDS011;45342;42.662;27.718;2022-09-24T12:04:59;2.72;;;2.40;;
59516;SDS011;45342;42.662;27.718;2022-09-24T12:07:39;2.50;;;2.28;;
59516;SDS011;45342;42.662;27.718;2022-09-24T12:13:16;2.47;;;2.28;;
59516;SDS011;45342;42.662;27.718;2022-09-24T12:15:49;2.58;;;2.38;;
59516;SDS011;45342;42.662;27.718;2022-09-24T12:18:19;2.30;;;2.10;;
59516;SDS011;45342;42.662;27.718;2022-09-24T12:20:51;2.58;;;2.25;;
59516;SDS011;45342;42.662;27.718;2022-09-24T12:23:20;3.00;;;2.70;;
59516;SDS011;45342;42.662;27.718;2022-09-24T12:25:49;3.17;;;2.58;;
59516;SDS011;45342;42.662;27.718;2022-09-24T12:31:02;2.80;;;2.20;;
59516;SDS011;45342;42.662;27.718;2022-09-24T12:34:00;2.40;;;2.20;;
59516;SDS011;45342;42.662;27.718;2022-09-24T12:36:36;2.75;;;2.55;;
59516;SDS011;45342;42.662;27.718;2022-09-24T12:39:09;2.97;;;2.40;;
59516;SDS011;45342;42.662;27.718;2022-09-24T12:41:38;2.78;;;2.40;;
59516;SDS011;45342;42.662;27.718;2022-09-24T12:49:02;2.47;;;2.28;;
59516;SDS011;45342;42.662;27.718;2022-09-24T12:51:37;2.60;;;2.40;;
59516;SDS011;45342;42.662;27.718;2022-09-24T12:54:13;2.60;;;2.30;;
59516;SDS011;45342;42.662;27.718;2022-09-24T12:57:18;2.75;;;2.55;;
59516;SDS011;45342;42.662;27.718;2022-09-24T12:59:50;2.72;;;2.28;;
59516;SDS011;45342;42.662;27.718;2022-09-24T13:02:21;2.67;;;2.47;;
59516;SDS011;45342;42.662;27.718;2022-09-24T13:05:24;2.72;;;2.40;;
59516;SDS011;45342;42.662;27.718;2022-09-24T13:07:55;2.65;;;2.30;;
59516;SDS011;45342;42.662;27.718;2022-09-24T13:10:23;2.88;;;2.50;;
59516;SDS011;45342;42.662;27.718;2022-09-24T13:12:57;2.88;;;2.30;;
59516;SDS011;45342;42.662;27.718;2022-09-24T13:15:39;2.55;;;2.28;;
59516;SDS011;45342;42.662;27.718;2022-09-24T13:18:27;2.88;;;2.55;;
59516;SDS011;45342;42.662;27.718;2022-09-24T13:20:59;2.63;;;2.42;;
59516;SDS011;45342;42.662;27.718;2022-09-24T13:25:56;3.03;;;2.53;;
59516;SDS011;45342;42.662;27.718;2022-09-24T13:28:27;2.55;;;2.35;;
59516;SDS011;45342;42.662;27.718;2022-09-24T13:31:01;2.35;;;2.15;;
59516;SDS011;45342;42.662;27.718;2022-09-24T13:33:38;2.70;;;2.50;;
59516;SDS011;45342;42.662;27.718;2022-09-24T13:36:17;2.35;;;2.15;;
59516;SDS011;45342;42.662;27.718;2022-09-24T13:43:55;2.72;;;2.20;;
59516;SDS011;45342;42.662;27.718;2022-09-24T13:46:25;2.58;;;2.38;;
59516;SDS011;45342;42.662;27.718;2022-09-24T13:48:52;2.63;;;2.38;;
59516;SDS011;45342;42.662;27.718;2022-09-24T13:51:23;2.72;;;2.05;;
59516;SDS011;45342;42.662;27.718;2022-09-24T13:53:52;3.17;;;2.17;;
59516;SDS011;45342;42.662;27.718;2022-09-24T13:56:22;2.60;;;2.40;;
59516;SDS011;45342;42.662;27.718;2022-09-24T13:58:48;2.45;;;2.20;;
59516;SDS011;45342;42.662;27.718;2022-09-24T14:03:51;2.60;;;2.40;;
59516;SDS011;45342;42.662;27.718;2022-09-24T14:06:18;2.00;;;1.90;;
59516;SDS011;45342;42.662;27.718;2022-09-24T14:08:56;2.22;;;2.03;;
59516;SDS011;45342;42.662;27.718;2022-09-24T14:11:22;3.72;;;2.78;;
59516;SDS011;45342;42.662;27.718;2022-09-24T14:16:16;2.30;;;2.03;;
59516;SDS011;45342;42.662;27.718;2022-09-24T14:18:43;2.40;;;2.20;;
59516;SDS011;45342;42.662;27.718;2022-09-24T14:29:42;2.53;;;2.22;;
59516;SDS011;45342;42.662;27.718;2022-09-24T14:35:16;2.85;;;2.38;;
59516;SDS011;45342;42.662;27.718;2022-09-24T14:37:47;2.90;;;2.42;;
59516;SDS011;45342;42.662;27.718;2022-09-24T14:40:16;2.72;;;2.20;;
59516;SDS011;45342;42.662;27.718;2022-09-24T14:45:08;2.70;;;2.33;;
59516;SDS011;45342;42.662;27.718;2022-09-24T14:47:35;2.60;;;2.40;;
59516;SDS011;45342;42.662;27.718;2022-09-24T14:50:01;2.55;;;2.20;;
59516;SDS011;45342;42.662;27.718;2022-09-24T14:57:46;2.88;;;2.58;;
59516;SDS011;45342;42.662;27.718;2022-09-24T15:00:20;2.50;;;2.30;;
59516;SDS011;45342;42.662;27.718;2022-09-24T15:02:47;2.95;;;2.50;;
59516;SDS011;45342;42.662;27.718;2022-09-24T15:05:16;3.05;;;2.47;;
59516;SDS011;45342;42.662;27.718;2022-09-24T15:07:48;2.78;;;2.45;;
59516;SDS011;45342;42.662;27.718;2022-09-24T15:10:17;2.78;;;2.58;;
59516;SDS011;45342;42.662;27.718;2022-09-24T15:12:46;3.00;;;2.70;;
59516;SDS011;45342;42.662;27.718;2022-09-24T15:20:15;3.30;;;2.70;;
59516;SDS011;45342;42.662;27.718;2022-09-24T15:22:41;2.60;;;2.40;;
59516;SDS011;45342;42.662;27.718;2022-09-24T15:25:07;3.40;;;2.75;;
59516;SDS011;45342;42.662;27.718;2022-09-24T15:27:34;2.65;;;2.45;;
59516;SDS011;45342;42.662;27.718;2022-09-24T15:30:03;3.08;;;2.63;;
59516;SDS011;45342;42.662;27.718;2022-09-24T15:32:30;3.03;;;2.67;;
59516;SDS011;45342;42.662;27.718;2022-09-24T15:34:56;2.50;;;2.28;;
59516;SDS011;45342;42.662;27.718;2022-09-24T15:37:23;2.72;;;2.53;;
59516;SDS011;45342;42.662;27.718;2022-09-24T15:39:50;3.08;;;2.78;;
59516;SDS011;45342;42.662;27.718;2022-09-24T15:42:20;3.45;;;2.88;;
59516;SDS011;45342;42.662;27.718;2022-09-24T15:44:47;3.55;;;2.78;;
59516;SDS011;45342;42.662;27.718;2022-09-24T15:47:15;3.10;;;2.78;;
59516;SDS011;45342;42.662;27.718;2022-09-24T15:49:41;3.38;;;3.00;;
59516;SDS011;45342;42.662;27.718;2022-09-24T15:54:38;3.08;;;2.63;;
59516;SDS011;45342;42.662;27.718;2022-09-24T15:57:04;4.38;;;2.95;;
59516;SDS011;45342;42.662;27.718;2022-09-24T15:59:30;4.00;;;3.15;;
59516;SDS011;45342;42.662;27.718;2022-09-24T16:02:00;7.60;;;3.00;;
59516;SDS011;45342;42.662;27.718;2022-09-24T16:04:27;3.78;;;3.38;;
59516;SDS011;45342;42.662;27.718;2022-09-24T16:09:18;8.30;;;4.53;;
59516;SDS011;45342;42.662;27.718;2022-09-24T16:11:44;8.35;;;4.72;;
59516;SDS011;45342;42.662;27.718;2022-09-24T16:14:10;6.75;;;4.15;;
59516;SDS011;45342;42.662;27.718;2022-09-24T16:16:39;8.25;;;4.47;;
59516;SDS011;45342;42.662;27.718;2022-09-24T16:19:05;7.38;;;4.85;;
59516;SDS011;45342;42.662;27.718;2022-09-24T16:21:32;7.32;;;4.47;;
59516;SDS011;45342;42.662;27.718;2022-09-24T16:23:58;8.07;;;4.88;;
59516;SDS011;45342;42.662;27.718;2022-09-24T16:26:24;7.50;;;4.68;;
59516;SDS011;45342;42.662;27.718;2022-09-24T16:28:50;9.63;;;5.43;;
59516;SDS011;45342;42.662;27.718;2022-09-24T16:31:19;8.32;;;5.40;;
59516;SDS011;45342;42.662;27.718;2022-09-24T16:33:45;7.80;;;4.85;;
59516;SDS011;45342;42.662;27.718;2022-09-24T16:36:11;9.10;;;5.18;;
59516;SDS011;45342;42.662;27.718;2022-09-24T16:38:40;9.43;;;5.20;;
59516;SDS011;45342;42.662;27.718;2022-09-24T16:41:06;7.78;;;4.78;;
59516;SDS011;45342;42.662;27.718;2022-09-24T16:43:32;10.23;;;5.43;;
59516;SDS011;45342;42.662;27.718;2022-09-24T16:46:01;9.30;;;5.40;;
59516;SDS011;45342;42.662;27.718;2022-09-24T16:48:28;8.18;;;5.03;;
59516;SDS011;45342;42.662;27.718;2022-09-24T16:53:26;8.30;;;5.25;;
59516;SDS011;45342;42.662;27.718;2022-09-24T16:55:52;7.85;;;4.93;;
59516;SDS011;45342;42.662;27.718;2022-09-24T16:58:33;7.93;;;5.10;;
59516;SDS011;45342;42.662;27.718;2022-09-24T17:03:27;7.93;;;5.15;;
59516;SDS011;45342;42.662;27.718;2022-09-24T17:05:52;9.35;;;5.22;;
59516;SDS011;45342;42.662;27.718;2022-09-24T17:08:18;8.07;;;5.03;;
59516;SDS011;45342;42.662;27.718;2022-09-24T17:10:50;9.27;;;4.78;;
59516;SDS011;45342;42.662;27.718;2022-09-24T17:13:15;7.50;;;5.03;;
59516;SDS011;45342;42.662;27.718;2022-09-24T17:15:41;8.65;;;5.20;;
59516;SDS011;45342;42.662;27.718;2022-09-24T17:18:07;9.65;;;5.43;;
59516;SDS011;45342;42.662;27.718;2022-09-24T17:20:32;9.27;;;5.28;;
59516;SDS011;45342;42.662;27.718;2022-09-24T17:22:58;7.35;;;4.90;;
59516;SDS011;45342;42.662;27.718;2022-09-24T17:25:23;8.02;;;5.10;;
59516;SDS011;45342;42.662;27.718;2022-09-24T17:27:50;8.02;;;4.85;;
59516;SDS011;45342;42.662;27.718;2022-09-24T17:30:16;8.10;;;4.85;;
59516;SDS011;45342;42.662;27.718;2022-09-24T17:32:42;7.78;;;4.68;;